createdAt,value
2022-08-17T00:00:11.977Z,60.86
2022-08-17T00:02:59.674Z,61.83
2022-08-17T00:05:27.742Z,61.79
2022-08-17T00:07:55.342Z,61.50
2022-08-17T00:10:24.919Z,61.37
2022-08-17T00:12:52.877Z,61.79
2022-08-17T00:15:21.063Z,62.05
2022-08-17T00:17:49.584Z,62.16
2022-08-17T00:20:17.328Z,62.23
2022-08-17T00:22:47.518Z,62.99
2022-08-17T00:25:19.488Z,63.15
2022-08-17T00:27:48.375Z,63.64
2022-08-17T00:30:15.892Z,63.69
2022-08-17T00:33:15.711Z,63.00
2022-08-17T00:35:33.679Z,63.36
2022-08-17T00:38:01.483Z,63.10
2022-08-17T00:40:40.610Z,63.23
2022-08-17T00:43:18.010Z,62.37
2022-08-17T00:45:45.990Z,62.45
2022-08-17T00:48:29.007Z,62.62
2022-08-17T00:51:00.970Z,63.01
2022-08-17T00:53:30.841Z,63.06
2022-08-17T00:55:59.004Z,62.34
2022-08-17T00:58:35.774Z,62.35
2022-08-17T01:01:04.751Z,62.13
2022-08-17T01:03:32.583Z,62.04
2022-08-17T01:06:02.713Z,61.98
2022-08-17T01:08:31.540Z,60.35
2022-08-17T01:11:02.234Z,59.03
2022-08-17T01:13:39.824Z,58.82
2022-08-17T01:16:13.358Z,59.13
2022-08-17T01:18:42.098Z,59.05
2022-08-17T01:21:16.019Z,59.11
2022-08-17T01:23:44.862Z,58.60
2022-08-17T01:26:12.346Z,58.13
2022-08-17T01:28:53.740Z,58.32
2022-08-17T01:31:24.812Z,57.85
2022-08-17T01:33:52.405Z,57.63
2022-08-17T01:36:20.194Z,57.85
2022-08-17T01:38:49.030Z,58.14
2022-08-17T01:41:17.354Z,57.91
2022-08-17T01:43:47.282Z,57.60
2022-08-17T01:46:16.837Z,57.74
2022-08-17T01:48:47.300Z,57.10
2022-08-17T01:51:15.702Z,57.10
2022-08-17T01:53:46.345Z,57.20
2022-08-17T01:56:17.581Z,56.81
2022-08-17T01:58:45.615Z,57.20
2022-08-17T02:01:14.897Z,56.93
2022-08-17T02:03:59.259Z,56.66
2022-08-17T02:06:29.726Z,57.16
2022-08-17T02:09:02.476Z,56.95
2022-08-17T02:11:34.259Z,57.38
2022-08-17T02:14:03.994Z,57.32
2022-08-17T02:16:37.420Z,57.60
2022-08-17T02:19:07.885Z,57.21
2022-08-17T02:21:35.577Z,57.19
2022-08-17T02:24:03.630Z,57.52
2022-08-17T02:26:32.469Z,56.80
2022-08-17T02:29:00.021Z,56.80
2022-08-17T02:31:27.646Z,57.26
2022-08-17T02:34:03.338Z,56.97
2022-08-17T02:36:32.501Z,57.46
2022-08-17T02:39:00.750Z,57.43
2022-08-17T02:41:28.339Z,57.49
2022-08-17T02:43:57.251Z,57.40
2022-08-17T02:46:24.752Z,57.71
2022-08-17T02:48:52.258Z,57.60
2022-08-17T02:51:20.480Z,57.64
2022-08-17T02:53:47.984Z,57.65
2022-08-17T02:56:15.779Z,57.48
2022-08-17T02:58:43.292Z,57.62
2022-08-17T03:01:12.577Z,57.75
2022-08-17T03:03:40.856Z,57.91
2022-08-17T03:06:09.353Z,57.87
2022-08-17T03:08:37.405Z,58.13
2022-08-17T03:11:05.118Z,58.06
2022-08-17T03:13:32.601Z,58.24
2022-08-17T03:16:00.110Z,58.21
2022-08-17T03:18:28.995Z,58.35
2022-08-17T03:20:58.330Z,58.31
2022-08-17T03:23:27.301Z,58.47
2022-08-17T03:25:56.153Z,58.85
2022-08-17T03:28:24.201Z,58.83
2022-08-17T03:30:52.240Z,58.24
2022-08-17T03:33:20.595Z,58.57
2022-08-17T03:35:49.467Z,58.26
2022-08-17T03:38:17.817Z,58.69
2022-08-17T03:40:58.957Z,58.59
2022-08-17T03:43:29.422Z,58.55
2022-08-17T03:46:27.915Z,58.43
2022-08-17T03:49:17.814Z,58.39
2022-08-17T03:52:09.681Z,58.32
2022-08-17T03:54:55.083Z,58.50
2022-08-17T03:57:22.611Z,58.57
2022-08-17T03:59:50.242Z,58.19
2022-08-17T04:02:20.310Z,58.41
2022-08-17T04:04:50.619Z,58.19
2022-08-17T04:07:20.320Z,58.75
2022-08-17T04:09:47.882Z,58.60
2022-08-17T04:12:16.333Z,58.77
2022-08-17T04:14:53.562Z,58.58
2022-08-17T04:17:24.099Z,58.71
2022-08-17T04:19:51.650Z,58.32
2022-08-17T04:22:30.894Z,58.32
2022-08-17T04:25:03.510Z,57.92
2022-08-17T04:27:30.993Z,57.80
2022-08-17T04:29:58.838Z,58.32
2022-08-17T04:33:00.767Z,58.04
2022-08-17T04:35:13.799Z,58.47
2022-08-17T04:37:42.633Z,58.41
2022-08-17T04:40:31.628Z,58.80
2022-08-17T04:43:03.564Z,58.91
2022-08-17T04:45:31.949Z,58.61
2022-08-17T04:48:00.588Z,58.46
2022-08-17T04:50:28.160Z,58.50
2022-08-17T04:52:57.302Z,58.44
2022-08-17T04:55:25.035Z,58.61
2022-08-17T04:57:52.516Z,58.46
2022-08-17T05:00:20.268Z,58.49
2022-08-17T05:02:50.352Z,58.42
2022-08-17T05:05:19.903Z,58.88
2022-08-17T05:07:48.551Z,58.12
2022-08-17T05:10:17.747Z,58.33
2022-08-17T05:12:45.226Z,58.11
2022-08-17T05:15:15.991Z,58.30
2022-08-17T05:17:43.553Z,58.67
2022-08-17T05:20:11.693Z,58.39
2022-08-17T05:22:50.157Z,58.42
2022-08-17T05:25:23.927Z,58.25
2022-08-17T05:27:53.361Z,58.16
2022-08-17T05:30:21.016Z,58.42
2022-08-17T05:32:53.492Z,58.36
2022-08-17T05:35:21.364Z,58.31
2022-08-17T05:37:48.914Z,58.02
2022-08-17T05:40:17.090Z,57.89
2022-08-17T05:42:45.944Z,57.15
2022-08-17T05:45:15.638Z,57.09
2022-08-17T05:47:44.560Z,56.75
2022-08-17T05:50:18.071Z,56.40
2022-08-17T05:52:51.909Z,56.65
2022-08-17T05:55:24.442Z,56.21
2022-08-17T05:58:05.472Z,56.38
2022-08-17T06:00:41.882Z,56.20
2022-08-17T06:03:20.270Z,56.32
2022-08-17T06:05:58.087Z,56.05
2022-08-17T06:08:33.659Z,55.95
2022-08-17T06:11:10.730Z,55.60
2022-08-17T06:13:58.819Z,55.54
2022-08-17T06:16:34.455Z,55.50
2022-08-17T06:19:05.359Z,55.24
2022-08-17T06:21:36.125Z,54.98
2022-08-17T06:24:07.453Z,54.73
2022-08-17T06:26:42.444Z,55.22
2022-08-17T06:29:33.428Z,54.91
2022-08-17T06:32:02.387Z,54.43
2022-08-17T06:34:30.183Z,54.39
2022-08-17T06:37:03.629Z,54.22
2022-08-17T06:39:42.510Z,53.78
2022-08-17T06:42:54.120Z,54.21
2022-08-17T06:45:09.772Z,53.85
2022-08-17T06:47:41.311Z,53.72
2022-08-17T06:50:14.596Z,53.48
2022-08-17T06:52:48.525Z,53.10
2022-08-17T06:55:21.211Z,53.10
2022-08-17T06:57:52.094Z,53.36
2022-08-17T07:00:24.190Z,53.16
2022-08-17T07:02:56.203Z,52.97
2022-08-17T07:05:27.437Z,52.71
2022-08-17T07:08:04.181Z,53.13
2022-08-17T07:10:40.553Z,53.15
2022-08-17T07:13:21.178Z,52.57
2022-08-17T07:15:54.015Z,52.40
2022-08-17T07:18:26.975Z,51.99
2022-08-17T07:20:59.525Z,52.12
2022-08-17T07:23:36.368Z,52.44
2022-08-17T07:26:06.015Z,52.67
2022-08-17T07:28:34.814Z,53.22
2022-08-17T07:31:05.157Z,52.77
2022-08-17T07:33:34.834Z,51.77
2022-08-17T07:36:02.329Z,52.13
2022-08-17T07:38:31.711Z,52.35
2022-08-17T07:41:05.048Z,52.10
2022-08-17T07:43:34.107Z,52.16
2022-08-17T07:46:24.482Z,53.86
2022-08-17T07:48:53.908Z,53.57
2022-08-17T07:51:33.779Z,53.89
2022-08-17T07:54:14.137Z,53.28
2022-08-17T07:56:45.693Z,52.89
2022-08-17T07:59:16.354Z,52.14
2022-08-17T08:01:49.061Z,53.26
2022-08-17T08:07:26.696Z,52.66
2022-08-17T08:10:06.329Z,51.64
2022-08-17T08:12:36.993Z,50.43
2022-08-17T08:15:13.848Z,52.04
2022-08-17T08:17:51.795Z,55.33
2022-08-17T08:20:51.432Z,56.04
2022-08-17T08:23:15.382Z,54.56
2022-08-17T08:25:53.250Z,55.93
2022-08-17T08:28:29.375Z,57.53
2022-08-17T08:31:03.370Z,57.79
2022-08-17T08:33:45.829Z,58.38
2022-08-17T08:36:57.092Z,59.74
2022-08-17T08:39:17.764Z,60.10
2022-08-17T08:41:52.001Z,60.00
2022-08-17T08:45:00.207Z,60.16
2022-08-17T08:47:35.248Z,60.94
2022-08-17T08:50:30.227Z,61.72
2022-08-17T08:53:08.146Z,61.79
2022-08-17T08:55:46.653Z,61.75
2022-08-17T08:58:32.007Z,61.46
2022-08-17T09:01:16.846Z,62.10
2022-08-17T09:04:19.959Z,61.45
2022-08-17T09:06:59.539Z,60.72
2022-08-17T09:09:34.392Z,62.03
2022-08-17T09:12:06.738Z,61.45
2022-08-17T09:14:46.411Z,63.74
2022-08-17T09:17:18.320Z,62.84
2022-08-17T09:19:49.507Z,62.85
2022-08-17T09:22:25.686Z,59.39
2022-08-17T09:24:58.370Z,60.48
2022-08-17T09:27:29.767Z,62.29
2022-08-17T09:30:02.454Z,63.72
2022-08-17T09:32:35.454Z,64.38
2022-08-17T09:35:10.353Z,63.88
2022-08-17T09:37:49.043Z,64.33
2022-08-17T09:40:19.096Z,64.45
2022-08-17T09:42:50.517Z,62.56
2022-08-17T09:45:28.446Z,60.59
2022-08-17T09:48:00.595Z,61.39
2022-08-17T09:51:03.553Z,58.34
2022-08-17T09:53:21.040Z,57.37
2022-08-17T09:55:59.422Z,58.16
2022-08-17T09:58:41.521Z,56.59
2022-08-17T10:01:17.020Z,55.43
2022-08-17T10:04:04.856Z,56.28
2022-08-17T10:06:36.604Z,56.30
2022-08-17T10:09:10.795Z,56.13
2022-08-17T10:11:59.187Z,55.87
2022-08-17T10:14:37.906Z,54.70
2022-08-17T10:17:15.928Z,55.48
2022-08-17T10:19:51.147Z,54.50
2022-08-17T10:22:45.220Z,54.15
2022-08-17T10:25:49.066Z,53.25
2022-08-17T10:28:28.767Z,53.14
2022-08-17T10:33:58.082Z,53.85
2022-08-17T10:36:28.740Z,53.84
2022-08-17T10:39:05.186Z,52.46
2022-08-17T10:41:40.498Z,51.81
2022-08-17T10:44:40.391Z,51.99
2022-08-17T10:47:08.320Z,52.27
2022-08-17T10:49:37.050Z,51.20
2022-08-17T10:52:43.657Z,50.10
2022-08-17T10:55:17.730Z,50.61
2022-08-17T10:57:47.575Z,49.90
2022-08-17T11:01:12.689Z,51.80
2022-08-17T11:03:54.070Z,52.07
2022-08-17T11:06:26.604Z,53.50
2022-08-17T11:09:27.502Z,53.39
2022-08-17T11:12:16.292Z,54.33
2022-08-17T11:14:51.593Z,54.60
2022-08-17T11:17:41.399Z,54.38
2022-08-17T11:20:23.979Z,55.37
2022-08-17T11:23:10.511Z,54.88
2022-08-17T11:25:39.987Z,55.99
2022-08-17T11:28:10.572Z,54.48
2022-08-17T11:30:46.857Z,54.82
2022-08-17T11:33:52.346Z,53.56
2022-08-17T11:36:38.872Z,53.20
2022-08-17T11:39:18.711Z,51.66
2022-08-17T11:41:50.943Z,51.48
2022-08-17T11:44:37.613Z,51.33
2022-08-17T11:47:34.146Z,48.80
2022-08-17T11:50:39.245Z,50.50
2022-08-17T11:53:09.595Z,50.03
2022-08-17T11:56:05.583Z,48.63
2022-08-17T11:58:40.153Z,45.44
2022-08-17T12:01:08.987Z,45.04
2022-08-17T12:03:54.024Z,44.91
2022-08-17T12:06:31.103Z,45.64
2022-08-17T12:09:06.499Z,44.33
2022-08-17T12:11:56.305Z,44.57
2022-08-17T12:14:51.684Z,43.50
2022-08-17T12:17:39.658Z,43.54
2022-08-17T12:20:14.633Z,41.89
2022-08-17T12:22:53.299Z,43.14
2022-08-17T12:25:25.822Z,41.72
2022-08-17T12:28:04.839Z,41.97
2022-08-17T12:30:34.546Z,42.32
2022-08-17T12:33:02.369Z,42.19
2022-08-17T12:35:33.048Z,42.13
2022-08-17T12:38:01.132Z,41.70
2022-08-17T12:40:32.188Z,41.88
2022-08-17T12:43:01.401Z,41.81
2022-08-17T12:45:31.159Z,42.23
2022-08-17T12:48:04.074Z,41.49
2022-08-17T12:50:32.117Z,43.12
2022-08-17T12:53:02.496Z,42.71
2022-08-17T12:55:36.962Z,42.71
2022-08-17T12:58:04.949Z,42.30
2022-08-17T13:00:34.559Z,43.00
2022-08-17T13:03:07.615Z,41.94
2022-08-17T13:05:37.764Z,41.35
2022-08-17T13:08:14.685Z,40.96
2022-08-17T13:10:43.809Z,41.09
2022-08-17T13:13:22.201Z,40.34
2022-08-17T13:15:54.016Z,40.95
2022-08-17T13:18:46.215Z,39.63
2022-08-17T13:21:26.743Z,39.66
2022-08-17T13:24:01.843Z,40.47
2022-08-17T13:26:34.499Z,40.68
2022-08-17T13:29:03.196Z,40.36
2022-08-17T13:31:42.880Z,40.91
2022-08-17T13:34:34.179Z,41.63
2022-08-17T13:37:33.958Z,42.11
2022-08-17T13:40:14.235Z,42.18
2022-08-17T13:42:52.038Z,42.06
2022-08-17T13:45:39.192Z,42.31
2022-08-17T13:48:14.336Z,41.78
2022-08-17T13:50:45.445Z,42.27
2022-08-17T13:53:18.232Z,41.32
2022-08-17T13:55:49.144Z,40.49
2022-08-17T13:58:22.954Z,41.72
2022-08-17T14:00:51.664Z,40.72
2022-08-17T14:03:20.069Z,41.06
2022-08-17T14:05:48.401Z,39.65
2022-08-17T14:08:17.353Z,39.43
2022-08-17T14:10:45.457Z,40.11
2022-08-17T14:13:15.262Z,39.80
2022-08-17T14:15:53.988Z,39.87
2022-08-17T14:18:42.047Z,39.23
2022-08-17T14:21:11.955Z,38.47
2022-08-17T14:23:39.440Z,38.19
2022-08-17T14:26:08.513Z,38.37
2022-08-17T14:28:36.466Z,37.84
2022-08-17T14:31:07.340Z,38.28
2022-08-17T14:33:35.257Z,37.30
2022-08-17T14:36:02.739Z,36.48
2022-08-17T14:38:30.304Z,36.66
2022-08-17T14:40:58.222Z,36.65
2022-08-17T14:43:25.877Z,37.26
2022-08-17T14:45:53.360Z,36.35
2022-08-17T14:48:22.231Z,37.31
2022-08-17T14:50:49.717Z,35.32
2022-08-17T14:53:17.290Z,36.76
2022-08-17T14:55:45.765Z,36.73
2022-08-17T14:58:14.684Z,34.95
2022-08-17T15:00:43.588Z,35.29
2022-08-17T15:03:12.244Z,35.70
2022-08-17T15:05:44.016Z,37.17
2022-08-17T15:08:11.631Z,37.05
2022-08-17T15:10:39.610Z,36.58
2022-08-17T15:13:21.178Z,36.38
2022-08-17T15:15:49.919Z,36.16
2022-08-17T15:18:18.535Z,36.63
2022-08-17T15:20:48.638Z,34.08
2022-08-17T15:23:16.886Z,35.20
2022-08-17T15:25:44.655Z,34.89
2022-08-17T15:28:12.158Z,34.89
2022-08-17T15:30:42.931Z,34.62
2022-08-17T15:33:14.113Z,33.23
2022-08-17T15:35:44.151Z,34.19
2022-08-17T15:38:13.369Z,33.57
2022-08-17T15:40:45.336Z,32.98
2022-08-17T15:43:14.695Z,33.78
2022-08-17T15:45:42.435Z,33.86
2022-08-17T15:48:10.352Z,33.88
2022-08-17T15:50:38.297Z,33.21
2022-08-17T15:53:05.781Z,32.81
2022-08-17T15:55:35.222Z,32.96
2022-08-17T15:58:02.815Z,34.11
2022-08-17T16:00:30.449Z,33.07
2022-08-17T16:03:44.914Z,33.73
2022-08-17T16:05:47.546Z,33.64
2022-08-17T16:08:20.606Z,32.87
2022-08-17T16:10:49.929Z,32.41
2022-08-17T16:13:18.289Z,33.09
2022-08-17T16:15:51.040Z,33.11
2022-08-17T16:18:25.538Z,32.97
2022-08-17T16:20:53.576Z,32.80
2022-08-17T16:23:21.041Z,33.63
2022-08-17T16:25:53.717Z,32.70
2022-08-17T16:28:35.791Z,32.01
2022-08-17T16:31:05.790Z,32.82
2022-08-17T16:33:35.824Z,32.47
2022-08-17T16:36:03.573Z,32.15
2022-08-17T16:38:31.060Z,32.46
2022-08-17T16:40:59.984Z,32.63
2022-08-17T16:43:28.673Z,33.08
2022-08-17T16:45:56.159Z,33.33
2022-08-17T16:48:24.215Z,33.68
2022-08-17T16:51:02.933Z,32.06
2022-08-17T16:53:31.480Z,32.74
2022-08-17T16:56:00.415Z,32.57
2022-08-17T16:58:27.949Z,32.76
2022-08-17T17:00:57.159Z,32.77
2022-08-17T17:03:26.031Z,33.52
2022-08-17T17:06:00.499Z,33.31
2022-08-17T17:08:34.681Z,33.21
2022-08-17T17:11:10.345Z,33.73
2022-08-17T17:13:40.341Z,34.54
2022-08-17T17:16:14.790Z,33.92
2022-08-17T17:18:56.270Z,34.70
2022-08-17T17:21:26.649Z,34.91
2022-08-17T17:23:57.790Z,34.13
2022-08-17T17:26:35.322Z,34.56
2022-08-17T17:29:16.273Z,34.65
2022-08-17T17:31:51.690Z,34.34
2022-08-17T17:34:19.940Z,35.70
2022-08-17T17:36:51.682Z,35.05
2022-08-17T17:39:31.878Z,35.63
2022-08-17T17:42:05.703Z,35.47
2022-08-17T17:44:36.011Z,36.31
2022-08-17T17:47:04.516Z,35.51
2022-08-17T17:49:35.322Z,35.83
2022-08-17T17:52:13.186Z,36.67
2022-08-17T17:54:57.429Z,36.44
2022-08-17T17:57:34.096Z,36.64
2022-08-17T18:00:06.710Z,36.87
2022-08-17T18:02:51.548Z,37.25
2022-08-17T18:05:40.283Z,36.88
2022-08-17T18:08:12.633Z,36.94
2022-08-17T18:10:49.125Z,37.36
2022-08-17T18:13:22.748Z,37.66
2022-08-17T18:15:54.767Z,37.58
2022-08-17T18:18:37.566Z,38.29
2022-08-17T18:21:14.717Z,38.15
2022-08-17T18:23:54.908Z,38.53
2022-08-17T18:26:37.914Z,38.85
2022-08-17T18:29:22.894Z,38.89
2022-08-17T18:32:12.450Z,39.46
2022-08-17T18:34:48.521Z,39.59
2022-08-17T18:37:35.070Z,40.03
2022-08-17T18:40:26.014Z,40.24
2022-08-17T18:43:12.789Z,40.60
2022-08-17T18:45:48.338Z,41.02
2022-08-17T18:48:33.176Z,41.26
2022-08-17T18:51:02.607Z,41.34
2022-08-17T18:53:39.145Z,41.57
2022-08-17T18:56:30.703Z,41.55
2022-08-17T18:59:22.924Z,42.09
2022-08-17T19:02:10.251Z,42.16
2022-08-17T19:04:42.266Z,43.04
2022-08-17T19:07:14.039Z,43.24
2022-08-17T19:09:45.222Z,43.32
2022-08-17T19:12:27.190Z,43.96
2022-08-17T19:14:56.444Z,44.37
2022-08-17T19:17:30.078Z,44.57
2022-08-17T19:20:01.161Z,45.07
2022-08-17T19:22:37.181Z,45.14
2022-08-17T19:25:11.495Z,45.37
2022-08-17T19:27:49.965Z,45.13
2022-08-17T19:30:18.046Z,45.20
2022-08-17T19:32:46.926Z,45.06
2022-08-17T19:35:17.543Z,45.47
2022-08-17T19:37:52.677Z,46.10
2022-08-17T19:40:50.979Z,45.72
2022-08-17T19:43:19.727Z,46.38
2022-08-17T19:45:56.954Z,46.46
2022-08-17T19:48:35.535Z,46.42
2022-08-17T19:51:07.283Z,46.29
2022-08-17T19:54:04.506Z,46.71
2022-08-17T19:56:37.863Z,47.23
2022-08-17T19:59:11.284Z,47.80
2022-08-17T20:01:47.979Z,48.35
2022-08-17T20:04:22.285Z,48.57
2022-08-17T20:06:50.287Z,49.00
2022-08-17T20:09:21.150Z,48.94
2022-08-17T20:11:50.454Z,49.17
2022-08-17T20:14:20.757Z,49.56
2022-08-17T20:16:48.551Z,49.59
2022-08-17T20:19:23.819Z,49.62
2022-08-17T20:21:55.277Z,49.70
2022-08-17T20:24:27.086Z,49.34
2022-08-17T20:26:58.393Z,49.94
2022-08-17T20:29:40.247Z,50.61
2022-08-17T20:32:20.080Z,51.10
2022-08-17T20:34:49.198Z,51.01
2022-08-17T20:37:30.076Z,50.85
2022-08-17T20:40:22.434Z,51.54
2022-08-17T20:42:49.940Z,51.70
2022-08-17T20:45:43.340Z,52.24
2022-08-17T20:48:36.210Z,51.95
2022-08-17T20:51:17.774Z,52.38
2022-08-17T20:54:02.070Z,52.51
2022-08-17T20:56:56.113Z,52.48
2022-08-17T21:00:04.873Z,53.80
2022-08-17T21:02:32.806Z,53.46
2022-08-17T21:05:30.340Z,54.02
2022-08-17T21:08:01.029Z,53.91
2022-08-17T21:10:38.506Z,54.07
2022-08-17T21:13:29.508Z,54.28
2022-08-17T21:15:59.882Z,54.71
2022-08-17T21:18:34.001Z,54.39
2022-08-17T21:21:14.146Z,54.54
2022-08-17T21:23:58.493Z,54.58
2022-08-17T21:26:33.222Z,54.43
2022-08-17T21:29:14.703Z,54.66
2022-08-17T21:32:21.060Z,55.86
2022-08-17T21:35:23.903Z,56.49
2022-08-17T21:37:54.003Z,56.04
2022-08-17T21:40:26.620Z,56.33
2022-08-17T21:42:57.994Z,56.19
2022-08-17T21:45:27.567Z,56.49
2022-08-17T21:48:09.442Z,56.25
2022-08-17T21:50:37.535Z,56.25
2022-08-17T21:53:05.919Z,55.99
2022-08-17T21:55:36.782Z,56.02
2022-08-17T21:58:14.427Z,56.36
2022-08-17T22:00:44.075Z,56.39
2022-08-17T22:03:23.581Z,56.31
2022-08-17T22:05:51.677Z,56.48
2022-08-17T22:08:24.674Z,56.20
2022-08-17T22:11:01.894Z,55.88
2022-08-17T22:13:30.039Z,55.88
2022-08-17T22:16:27.966Z,56.22
2022-08-17T22:18:57.836Z,56.77
2022-08-17T22:21:26.096Z,57.56
2022-08-17T22:24:04.822Z,57.71
2022-08-17T22:27:03.318Z,57.07
2022-08-17T22:29:57.494Z,57.07
2022-08-17T22:32:41.373Z,56.16
2022-08-17T22:35:37.240Z,56.92
2022-08-17T22:38:27.098Z,56.63
2022-08-17T22:40:57.354Z,56.42
2022-08-17T22:43:28.466Z,56.94
2022-08-17T22:45:59.111Z,57.32
2022-08-17T22:48:29.402Z,57.05
2022-08-17T22:51:12.797Z,57.34
2022-08-17T22:54:04.485Z,58.46
2022-08-17T22:56:49.872Z,59.13
2022-08-17T22:59:41.749Z,58.71
2022-08-17T23:02:27.462Z,58.98
2022-08-17T23:04:59.169Z,59.79
2022-08-17T23:07:27.649Z,59.72
2022-08-17T23:09:55.531Z,59.87
2022-08-17T23:12:26.274Z,59.75
2022-08-17T23:15:00.552Z,59.93
2022-08-17T23:17:33.917Z,59.89
2022-08-17T23:20:05.260Z,60.20
2022-08-17T23:22:33.254Z,59.59
2022-08-17T23:25:00.715Z,59.99
2022-08-17T23:27:29.258Z,60.41
2022-08-17T23:29:58.641Z,61.02
2022-08-17T23:32:26.363Z,60.29
2022-08-17T23:34:53.875Z,60.13
2022-08-17T23:37:21.360Z,60.32
2022-08-17T23:39:48.807Z,61.10
2022-08-17T23:42:21.599Z,62.70
2022-08-17T23:44:49.457Z,63.50
2022-08-17T23:47:18.448Z,64.34
2022-08-17T23:49:45.950Z,63.69
2022-08-17T23:52:16.345Z,62.53
2022-08-17T23:54:46.510Z,61.61
2022-08-17T23:57:16.675Z,61.63
2022-08-17T23:59:44.782Z,61.73
